createdAt,value
2019-02-24T00:01:42.184Z,19.80
2019-02-24T00:04:27.083Z,21.47
2019-02-24T00:07:11.046Z,19.67
2019-02-24T00:09:43.729Z,19.62
2019-02-24T00:12:28.084Z,18.00
2019-02-24T00:15:12.919Z,18.00
2019-02-24T00:17:56.473Z,20.57
2019-02-24T00:20:40.813Z,19.20
2019-02-24T00:23:25.069Z,21.30
2019-02-24T00:26:09.473Z,17.13
2019-02-24T00:28:57.170Z,20.25
2019-02-24T00:31:54.677Z,20.77
2019-02-24T00:34:39.181Z,19.85
2019-02-24T00:37:23.772Z,17.42
2019-02-24T00:39:56.822Z,18.55
2019-02-24T00:42:40.853Z,18.57
2019-02-24T00:45:24.615Z,19.20
2019-02-24T00:48:08.471Z,19.87
2019-02-24T00:50:52.425Z,20.67
2019-02-24T00:53:37.409Z,17.37
2019-02-24T00:56:22.886Z,20.33
2019-02-24T00:59:07.533Z,21.77
2019-02-24T01:01:51.900Z,21.37
2019-02-24T01:04:38.191Z,19.07
2019-02-24T01:07:22.890Z,21.13
2019-02-24T01:10:08.784Z,16.90
2019-02-24T01:12:52.490Z,16.53
2019-02-24T01:15:38.628Z,19.37
2019-02-24T01:18:22.250Z,18.60
2019-02-24T01:21:05.769Z,19.80
2019-02-24T01:23:50.859Z,19.67
2019-02-24T01:26:34.969Z,24.37
2019-02-24T01:29:19.195Z,21.63
2019-02-24T01:32:02.667Z,20.37
2019-02-24T01:34:46.491Z,20.57
2019-02-24T01:37:30.688Z,20.37
2019-02-24T01:40:14.647Z,23.80
2019-02-24T01:42:58.117Z,24.30
2019-02-24T01:45:42.170Z,20.02
2019-02-24T01:48:26.050Z,20.17
2019-02-24T01:51:09.760Z,20.70
2019-02-24T01:53:54.090Z,22.15
2019-02-24T01:56:38.729Z,23.00
2019-02-24T01:59:22.440Z,20.00
2019-02-24T02:02:06.134Z,19.83
2019-02-24T02:04:50.002Z,20.87
2019-02-24T02:07:34.754Z,20.43
2019-02-24T02:10:18.637Z,20.30
2019-02-24T02:12:51.086Z,20.05
2019-02-24T02:15:35.328Z,19.47
2019-02-24T02:18:19.468Z,21.80
2019-02-24T02:21:03.880Z,20.30
2019-02-24T02:23:47.807Z,20.73
2019-02-24T02:26:31.634Z,19.80
2019-02-24T02:29:15.402Z,18.13
2019-02-24T02:31:59.819Z,21.47
2019-02-24T02:34:43.586Z,18.80
2019-02-24T02:37:28.465Z,19.30
2019-02-24T02:40:12.547Z,20.83
2019-02-24T02:42:56.451Z,19.67
2019-02-24T02:45:40.644Z,20.33
2019-02-24T02:48:26.638Z,19.35
2019-02-24T02:51:10.084Z,22.63
2019-02-24T02:53:55.485Z,23.17
2019-02-24T02:56:40.202Z,19.70
2019-02-24T02:59:24.426Z,20.47
2019-02-24T03:02:08.334Z,22.40
2019-02-24T03:04:52.253Z,21.73
2019-02-24T03:07:56.026Z,22.27
2019-02-24T03:10:40.828Z,20.53
2019-02-24T03:13:24.312Z,21.97
2019-02-24T03:16:08.163Z,21.97
2019-02-24T03:18:51.989Z,23.17
2019-02-24T03:21:36.756Z,21.27
2019-02-24T03:24:20.211Z,20.67
2019-02-24T03:27:04.416Z,21.50
2019-02-24T03:29:48.670Z,20.67
2019-02-24T03:32:33.774Z,21.03
2019-02-24T03:35:18.196Z,21.50
2019-02-24T03:38:01.871Z,24.67
2019-02-24T03:40:46.222Z,24.13
2019-02-24T03:43:31.997Z,22.30
2019-02-24T03:46:16.193Z,21.73
2019-02-24T03:49:01.016Z,21.20
2019-02-24T03:51:45.242Z,21.43
2019-02-24T03:54:29.015Z,22.87
2019-02-24T03:57:12.918Z,21.60
2019-02-24T03:59:57.032Z,20.73
2019-02-24T04:02:42.742Z,20.30
2019-02-24T04:05:26.436Z,19.57
2019-02-24T04:08:09.807Z,22.02
2019-02-24T04:10:54.272Z,21.57
2019-02-24T04:13:37.980Z,23.00
2019-02-24T04:16:22.353Z,23.23
2019-02-24T04:19:07.027Z,23.80
2019-02-24T04:21:50.420Z,22.73
2019-02-24T04:24:34.525Z,21.97
2019-02-24T04:27:18.090Z,22.60
2019-02-24T04:30:02.164Z,23.67
2019-02-24T04:32:47.687Z,25.43
2019-02-24T04:35:31.468Z,21.62
2019-02-24T04:38:20.226Z,23.40
2019-02-24T04:41:04.349Z,24.07
2019-02-24T04:43:49.643Z,21.00
2019-02-24T04:46:35.455Z,22.60
2019-02-24T04:49:19.894Z,22.10
2019-02-24T04:52:04.167Z,20.77
2019-02-24T04:54:47.978Z,22.83
2019-02-24T04:57:32.508Z,21.23
2019-02-24T05:00:17.042Z,22.63
2019-02-24T05:03:01.884Z,22.40
2019-02-24T05:05:46.367Z,22.23
2019-02-24T05:08:29.852Z,24.90
2019-02-24T05:11:13.824Z,24.93
2019-02-24T05:13:58.147Z,27.73
2019-02-24T05:16:30.958Z,26.37
2019-02-24T05:19:14.599Z,25.57
2019-02-24T05:21:58.188Z,27.87
2019-02-24T05:24:42.561Z,26.73
2019-02-24T05:27:26.362Z,27.67
2019-02-24T05:30:10.137Z,24.87
2019-02-24T05:32:54.700Z,26.23
2019-02-24T05:35:38.983Z,28.57
2019-02-24T05:38:23.088Z,25.63
2019-02-24T05:41:08.721Z,26.63
2019-02-24T05:43:52.685Z,30.67
2019-02-24T05:46:37.525Z,28.73
2019-02-24T05:49:21.337Z,28.37
2019-02-24T05:52:05.908Z,29.20
2019-02-24T05:54:51.777Z,28.00
2019-02-24T05:57:36.291Z,29.23
2019-02-24T06:00:20.128Z,26.70
2019-02-24T06:03:04.218Z,28.47
2019-02-24T06:05:49.971Z,29.67
2019-02-24T06:08:34.547Z,26.87
2019-02-24T06:11:18.767Z,26.95
2019-02-24T06:14:02.584Z,30.47
2019-02-24T06:16:47.288Z,29.17
2019-02-24T06:19:33.385Z,31.30
2019-02-24T06:22:17.754Z,28.20
2019-02-24T06:25:01.863Z,25.33
2019-02-24T06:27:46.010Z,28.27
2019-02-24T06:30:30.859Z,28.07
2019-02-24T06:33:03.797Z,29.05
2019-02-24T06:35:49.324Z,28.13
2019-02-24T06:38:35.385Z,29.83
2019-02-24T06:41:20.900Z,29.77
2019-02-24T06:44:04.418Z,30.13
2019-02-24T06:46:48.895Z,26.53
2019-02-24T06:49:33.257Z,28.02
2019-02-24T06:52:20.840Z,28.83
2019-02-24T06:55:05.171Z,29.98
2019-02-24T06:57:49.209Z,29.23
2019-02-24T07:00:33.257Z,30.40
2019-02-24T07:03:18.408Z,33.87
2019-02-24T07:06:06.419Z,29.13
2019-02-24T07:08:52.369Z,29.97
2019-02-24T07:11:38.880Z,30.40
2019-02-24T07:14:23.327Z,31.30
2019-02-24T07:17:07.383Z,28.07
2019-02-24T07:19:40.573Z,28.52
2019-02-24T07:22:24.470Z,29.27
2019-02-24T07:25:08.207Z,26.97
2019-02-24T07:27:55.956Z,31.42
2019-02-24T07:30:39.899Z,30.40
2019-02-24T07:33:23.616Z,32.87
2019-02-24T07:36:09.316Z,30.20
2019-02-24T07:38:54.774Z,29.87
2019-02-24T07:41:39.241Z,34.15
2019-02-24T07:47:09.280Z,31.75
2019-02-24T07:49:53.105Z,31.37
2019-02-24T07:52:38.843Z,31.27
2019-02-24T07:55:23.566Z,29.55
2019-02-24T07:58:07.513Z,30.83
2019-02-24T08:00:51.896Z,27.70
2019-02-24T08:03:35.985Z,28.97
2019-02-24T08:06:20.077Z,29.53
2019-02-24T08:09:04.393Z,28.40
2019-02-24T08:11:49.593Z,29.13
2019-02-24T08:14:36.023Z,25.97
2019-02-24T08:17:21.461Z,26.57
2019-02-24T08:20:06.794Z,26.27
2019-02-24T08:22:51.060Z,28.73
2019-02-24T08:25:34.652Z,28.37
2019-02-24T08:28:19.136Z,24.27
2019-02-24T08:31:03.654Z,28.00
2019-02-24T08:33:47.878Z,27.70
2019-02-24T08:36:32.720Z,25.27
2019-02-24T08:39:18.732Z,24.32
2019-02-24T08:42:03.654Z,26.57
2019-02-24T08:44:47.577Z,26.60
2019-02-24T08:47:32.130Z,25.60
2019-02-24T08:50:17.856Z,24.43
2019-02-24T08:53:03.092Z,24.33
2019-02-24T08:55:35.293Z,24.27
2019-02-24T08:58:19.054Z,25.70
2019-02-24T09:01:03.188Z,25.10
2019-02-24T09:03:35.805Z,24.57
2019-02-24T09:06:20.841Z,25.13
2019-02-24T09:09:04.926Z,22.73
2019-02-24T09:11:50.649Z,23.77
2019-02-24T09:14:36.358Z,22.43
2019-02-24T09:17:20.710Z,24.72
2019-02-24T09:20:07.016Z,25.97
2019-02-24T09:22:50.654Z,25.87
2019-02-24T09:25:36.446Z,26.42
2019-02-24T09:28:25.644Z,26.52
2019-02-24T09:31:09.569Z,28.10
2019-02-24T09:33:54.150Z,25.60
2019-02-24T09:36:38.026Z,26.23
2019-02-24T09:39:21.596Z,23.52
2019-02-24T09:42:06.345Z,24.97
2019-02-24T09:44:52.199Z,23.23
2019-02-24T09:47:46.030Z,25.27
2019-02-24T09:50:22.688Z,21.93
2019-02-24T09:53:06.684Z,22.93
2019-02-24T09:55:50.506Z,24.77
2019-02-24T09:58:35.185Z,21.65
2019-02-24T10:01:19.091Z,24.73
2019-02-24T10:04:03.758Z,21.80
2019-02-24T10:06:47.754Z,25.68
2019-02-24T10:09:33.635Z,24.97
2019-02-24T10:12:17.891Z,24.02
2019-02-24T10:15:02.525Z,24.37
2019-02-24T10:17:49.367Z,24.17
2019-02-24T10:20:34.148Z,23.80
2019-02-24T10:23:18.762Z,24.73
2019-02-24T10:26:03.795Z,23.00
2019-02-24T10:28:48.343Z,21.83
2019-02-24T10:31:32.671Z,24.12
2019-02-24T10:34:16.688Z,22.77
2019-02-24T10:37:01.351Z,22.33
2019-02-24T10:39:33.826Z,21.77
2019-02-24T10:42:18.545Z,23.77
2019-02-24T10:45:03.864Z,22.87
2019-02-24T10:47:49.099Z,23.67
2019-02-24T10:50:33.361Z,22.50
2019-02-24T10:53:17.827Z,22.20
2019-02-24T10:55:50.659Z,23.20
2019-02-24T10:58:41.014Z,23.63
2019-02-24T11:01:29.584Z,22.98
2019-02-24T11:04:13.666Z,19.92
2019-02-24T11:06:58.772Z,25.15
2019-02-24T11:09:43.035Z,21.40
2019-02-24T11:12:26.796Z,22.02
2019-02-24T11:15:10.725Z,22.17
2019-02-24T11:17:54.818Z,19.93
2019-02-24T11:20:27.415Z,22.87
2019-02-24T11:23:12.427Z,21.68
2019-02-24T11:25:56.522Z,24.93
2019-02-24T11:28:41.520Z,19.67
2019-02-24T11:31:25.725Z,23.13
2019-02-24T11:34:10.437Z,21.60
2019-02-24T11:36:54.519Z,21.23
2019-02-24T11:39:40.025Z,20.27
2019-02-24T11:42:24.777Z,21.77
2019-02-24T11:45:09.454Z,21.30
2019-02-24T11:47:54.203Z,19.70
2019-02-24T11:50:38.819Z,19.47
2019-02-24T11:53:22.845Z,18.40
2019-02-24T11:56:07.449Z,18.95
2019-02-24T11:58:52.648Z,19.13
2019-02-24T12:01:36.697Z,23.27
2019-02-24T12:04:21.349Z,20.17
2019-02-24T12:07:06.308Z,18.20
2019-02-24T12:09:53.377Z,19.02
2019-02-24T12:12:37.541Z,17.92
2019-02-24T12:15:22.098Z,21.07
2019-02-24T12:18:06.128Z,20.82
2019-02-24T12:20:53.123Z,18.60
2019-02-24T12:23:38.833Z,17.30
2019-02-24T12:26:11.396Z,17.53
2019-02-24T12:28:55.013Z,16.40
2019-02-24T12:31:38.781Z,18.03
2019-02-24T12:34:25.967Z,15.23
2019-02-24T12:37:12.448Z,17.45
2019-02-24T12:39:57.218Z,18.30
2019-02-24T12:42:41.490Z,16.90
2019-02-24T12:45:26.218Z,16.80
2019-02-24T12:48:11.041Z,18.47
2019-02-24T12:50:55.291Z,16.87
2019-02-24T12:53:39.682Z,16.83
2019-02-24T12:56:24.091Z,17.70
2019-02-24T12:59:08.732Z,16.37
2019-02-24T13:01:52.959Z,14.93
2019-02-24T13:04:37.076Z,15.10
2019-02-24T13:07:22.189Z,16.77
2019-02-24T13:10:06.641Z,13.93
2019-02-24T13:12:53.225Z,12.90
2019-02-24T13:15:39.049Z,12.50
2019-02-24T13:18:24.762Z,12.80
2019-02-24T13:21:10.678Z,12.63
2019-02-24T13:23:55.107Z,12.70
2019-02-24T13:26:39.750Z,12.63
2019-02-24T13:29:23.844Z,11.80
2019-02-24T13:32:14.667Z,12.10
2019-02-24T13:34:53.795Z,11.67
2019-02-24T13:37:37.966Z,10.83
2019-02-24T13:40:10.691Z,14.23
2019-02-24T13:42:55.648Z,12.87
2019-02-24T13:45:39.675Z,14.43
2019-02-24T13:48:24.365Z,13.40
2019-02-24T13:51:08.617Z,14.33
2019-02-24T13:53:53.362Z,14.65
2019-02-24T13:56:39.026Z,14.03
2019-02-24T13:59:24.008Z,13.80
2019-02-24T14:02:10.388Z,14.47
2019-02-24T14:04:55.408Z,13.73
2019-02-24T14:07:39.768Z,14.13
2019-02-24T14:10:24.684Z,13.43
2019-02-24T14:13:09.150Z,12.77
2019-02-24T14:15:52.890Z,13.27
2019-02-24T14:18:37.181Z,13.35
2019-02-24T14:21:22.756Z,14.67
2019-02-24T14:24:07.234Z,11.65
2019-02-24T14:26:51.345Z,12.57
2019-02-24T14:29:35.297Z,13.90
2019-02-24T14:32:19.575Z,12.97
2019-02-24T14:35:03.910Z,12.20
2019-02-24T14:37:47.931Z,11.93
2019-02-24T14:40:20.120Z,12.68
2019-02-24T14:43:06.276Z,12.43
2019-02-24T14:45:50.108Z,14.77
2019-02-24T14:48:34.487Z,13.90
2019-02-24T14:51:19.534Z,12.83
2019-02-24T14:53:51.794Z,13.80
2019-02-24T14:56:37.579Z,13.57
2019-02-24T14:59:22.880Z,12.37
2019-02-24T15:02:07.395Z,14.13
2019-02-24T15:04:52.487Z,15.23
2019-02-24T15:11:44.242Z,15.50
2019-02-24T15:14:29.502Z,14.33
2019-02-24T15:17:13.857Z,13.43
2019-02-24T15:19:58.068Z,13.93
2019-02-24T15:22:43.244Z,15.08
2019-02-24T15:25:28.789Z,16.30
2019-02-24T15:28:13.738Z,15.63
2019-02-24T15:30:58.870Z,14.95
2019-02-24T15:33:44.003Z,15.17
2019-02-24T15:36:28.653Z,15.27
2019-02-24T15:39:12.928Z,17.40
2019-02-24T15:41:57.332Z,16.63
2019-02-24T15:44:42.059Z,15.50
2019-02-24T15:47:27.515Z,18.17
2019-02-24T15:50:11.837Z,17.33
2019-02-24T15:52:44.781Z,14.63
2019-02-24T15:55:29.061Z,16.37
2019-02-24T16:01:23.750Z,15.30
2019-02-24T16:04:14.405Z,15.05
2019-02-24T16:07:02.654Z,15.18
2019-02-24T16:09:49.517Z,15.93
2019-02-24T16:12:33.697Z,15.18
2019-02-24T16:15:19.160Z,15.43
2019-02-24T16:18:03.588Z,16.67
2019-02-24T16:20:48.290Z,13.33
2019-02-24T16:23:32.841Z,14.43
2019-02-24T16:26:19.543Z,13.60
2019-02-24T16:29:03.987Z,13.27
2019-02-24T16:31:48.635Z,13.38
2019-02-24T16:34:22.512Z,14.47
2019-02-24T16:37:06.670Z,15.03
2019-02-24T16:39:50.917Z,18.50
2019-02-24T16:42:36.100Z,14.83
2019-02-24T16:45:20.209Z,16.20
2019-02-24T16:48:04.955Z,14.95
2019-02-24T16:50:38.314Z,14.67
2019-02-24T16:53:25.190Z,17.40
2019-02-24T16:56:12.654Z,16.50
2019-02-24T16:59:04.596Z,18.27
2019-02-24T17:01:49.318Z,15.93
2019-02-24T17:04:36.521Z,17.40
2019-02-24T17:07:21.250Z,19.33
2019-02-24T17:10:05.689Z,18.43
2019-02-24T17:12:50.686Z,22.40
2019-02-24T17:15:37.549Z,20.97
2019-02-24T17:18:22.123Z,20.93
2019-02-24T17:21:06.761Z,22.48
2019-02-24T17:23:52.501Z,20.43
2019-02-24T17:26:38.087Z,23.30
2019-02-24T17:29:26.556Z,24.33
2019-02-24T17:31:58.927Z,26.90
2019-02-24T17:34:44.071Z,26.90
2019-02-24T17:37:29.835Z,25.63
2019-02-24T17:40:03.017Z,30.45
2019-02-24T17:42:47.111Z,29.10
2019-02-24T17:45:30.761Z,27.17
2019-02-24T17:48:14.672Z,29.57
2019-02-24T17:50:59.750Z,30.50
2019-02-24T17:53:44.362Z,32.63
2019-02-24T17:56:29.339Z,29.33
2019-02-24T17:59:13.735Z,31.47
2019-02-24T18:01:57.702Z,31.93
2019-02-24T18:04:41.732Z,31.67
2019-02-24T18:07:26.177Z,32.67
2019-02-24T18:10:11.958Z,30.43
2019-02-24T18:12:56.130Z,32.83
2019-02-24T18:15:40.124Z,35.60
2019-02-24T18:18:24.397Z,33.00
2019-02-24T18:21:11.131Z,27.58
2019-02-24T18:23:55.055Z,23.20
2019-02-24T18:26:39.167Z,22.33
2019-02-24T18:32:29.441Z,18.07
2019-02-24T18:35:13.294Z,21.53
2019-02-24T18:37:58.422Z,21.60
2019-02-24T18:40:44.364Z,23.03
2019-02-24T18:43:30.305Z,19.70
2019-02-24T18:46:14.261Z,21.42
2019-02-24T18:48:57.966Z,19.07
2019-02-24T18:51:48.415Z,19.97
2019-02-24T18:54:34.960Z,21.07
2019-02-24T18:57:20.798Z,18.90
2019-02-24T19:00:05.685Z,20.17
2019-02-24T19:02:50.778Z,23.17
2019-02-24T19:05:35.491Z,20.87
2019-02-24T19:08:21.194Z,24.23
2019-02-24T19:11:05.275Z,23.30
2019-02-24T19:13:50.330Z,21.93
2019-02-24T19:16:34.206Z,21.43
2019-02-24T19:19:25.350Z,22.83
2019-02-24T19:22:07.306Z,20.97
2019-02-24T19:25:01.280Z,23.00
2019-02-24T19:27:45.280Z,25.23
2019-02-24T19:30:29.522Z,37.17
2019-02-24T19:33:14.834Z,40.70
2019-02-24T19:35:58.917Z,48.50
2019-02-24T19:38:43.548Z,49.73
2019-02-24T19:41:27.617Z,51.20
2019-02-24T19:44:11.448Z,47.60
2019-02-24T19:46:56.249Z,45.60
2019-02-24T19:49:40.077Z,44.00
2019-02-24T19:52:24.529Z,40.10
2019-02-24T19:55:08.647Z,38.97
2019-02-24T19:57:54.199Z,38.47
2019-02-24T20:00:40.356Z,41.02
2019-02-24T20:03:28.722Z,36.85
2019-02-24T20:06:13.219Z,35.37
2019-02-24T20:08:58.654Z,34.97
2019-02-24T20:11:43.786Z,37.42
2019-02-24T20:14:27.899Z,39.25
2019-02-24T20:17:12.527Z,36.87
2019-02-24T20:19:56.814Z,41.73
2019-02-24T20:22:42.757Z,47.87
2019-02-24T20:25:15.081Z,49.90
2019-02-24T20:27:58.900Z,50.92
2019-02-24T20:30:43.067Z,50.80
2019-02-24T20:33:26.688Z,46.77
2019-02-24T20:36:10.740Z,46.88
2019-02-24T20:38:54.984Z,42.57
2019-02-24T20:41:39.065Z,46.80
2019-02-24T20:44:23.584Z,43.70
2019-02-24T20:47:09.437Z,41.53
2019-02-24T20:49:42.089Z,45.03
2019-02-24T20:52:26.928Z,54.20
2019-02-24T20:55:10.751Z,53.63
2019-02-24T20:57:55.677Z,49.43
2019-02-24T21:00:42.245Z,52.07
2019-02-24T21:03:25.818Z,45.33
2019-02-24T21:06:11.148Z,56.73
2019-02-24T21:08:43.371Z,58.23
2019-02-24T21:11:15.632Z,64.63
2019-02-24T21:14:01.395Z,51.17
2019-02-24T21:16:46.640Z,51.97
2019-02-24T21:19:30.888Z,43.73
2019-02-24T21:22:15.320Z,41.33
2019-02-24T21:25:00.285Z,35.60
2019-02-24T21:27:32.648Z,35.65
2019-02-24T21:30:18.141Z,37.03
2019-02-24T21:33:03.084Z,35.13
2019-02-24T21:35:51.492Z,34.10
2019-02-24T21:38:36.235Z,31.33
2019-02-24T21:41:21.562Z,31.65
2019-02-24T21:44:06.278Z,33.07
2019-02-24T21:46:50.445Z,31.02
2019-02-24T21:49:22.723Z,32.37
2019-02-24T21:52:06.765Z,31.20
2019-02-24T21:54:52.264Z,32.23
2019-02-24T21:57:35.769Z,36.13
2019-02-24T22:00:20.234Z,38.43
2019-02-24T22:03:04.500Z,40.35
2019-02-24T22:05:52.190Z,39.23
2019-02-24T22:08:24.412Z,43.07
2019-02-24T22:11:09.215Z,38.13
2019-02-24T22:13:54.455Z,42.70
2019-02-24T22:16:38.758Z,39.57
2019-02-24T22:19:12.133Z,39.83
2019-02-24T22:21:57.153Z,35.43
2019-02-24T22:24:40.989Z,40.47
2019-02-24T22:27:13.388Z,33.60
2019-02-24T22:29:57.840Z,37.23
2019-02-24T22:32:44.261Z,34.73
2019-02-24T22:35:30.623Z,33.90
2019-02-24T22:38:16.962Z,37.40
2019-02-24T22:41:00.437Z,38.53
2019-02-24T22:43:45.970Z,36.77
2019-02-24T22:46:30.112Z,35.00
2019-02-24T22:49:13.848Z,31.57
2019-02-24T22:51:58.270Z,34.10
2019-02-24T22:54:43.302Z,30.40
2019-02-24T22:57:31.860Z,30.97
2019-02-24T23:00:20.583Z,31.90
2019-02-24T23:03:12.527Z,33.57
2019-02-24T23:05:56.921Z,30.33
2019-02-24T23:08:40.934Z,30.23
2019-02-24T23:11:25.491Z,32.63
2019-02-24T23:13:58.493Z,30.80
2019-02-24T23:16:43.144Z,30.83
2019-02-24T23:19:27.073Z,31.80
2019-02-24T23:22:12.180Z,27.97
2019-02-24T23:24:56.165Z,30.10
2019-02-24T23:27:40.084Z,30.17
2019-02-24T23:30:23.828Z,29.87
2019-02-24T23:33:08.123Z,30.77
2019-02-24T23:35:52.285Z,26.73
2019-02-24T23:38:36.919Z,26.25
2019-02-24T23:41:20.856Z,26.80
2019-02-24T23:43:53.180Z,26.33
2019-02-24T23:46:37.411Z,27.40
2019-02-24T23:49:21.642Z,31.07
2019-02-24T23:52:05.816Z,23.50
2019-02-24T23:54:50.228Z,26.15
2019-02-24T23:57:34.199Z,22.27
